logo
Search for airport 
image banner adimage banner adimage banner ad
image banner ad

ED0021 - Degmarn

Located in , Germany

ICAO - , IATA -

Data provided by Airmate  

General information

Coordinates: N49°15'35" E9°16'42"
Elevation is 510 feet MSL.
Magnetic variation is 3.0000° East
View others Airports in Baden-Württemberg

Operational data

Special qualification required
Current time UTC:
Current local time:
Weather at : EDTY - Schwaebisch Hall ( 40 km )
METAR: EDTY 171220Z 27006KT 230V310 CAVOK 22/11 Q1022
TAF: TAF EDTY 171100Z 1712/1721 31006KT CAVOK
View NOTAMs / SUP AIP / TFR affecting this airport [VIEW]
Communications frequencies: [VIEW]

Runways:

RWY identifierQFULength (ft)Width (ft)SurfaceLDA (ft)
0770°13290GRASS
26260°13290GRASS

Airport contact information

Address: Germany

Satellite view of ED0021